Ocean Spirit of Moray — MVXF5 — position and weather

sailwx.info

Track history (hours):
 
Tides and Currents Weather Stations Pressure Air Temp Water Temp Dewpoint Dewpoint Depression Visibility Wind Speed Wind Dir Waves Ship Positions

Ocean Spirit of Moray (United Kingdom)

Ship's website: http://www.gordonstoun.org.uk/

Last reported at 2015-Jul-30 19:23 UTC. Time now 2015-Jul-31 05:03 UTC.
Position N 57°58' E 010°41'.

Length 24 m; draft 3 m.

Type: Sailing vessel. MMSI: 232007590.

Date/timePositionNaut miles runAvg speedWind from/ knotsBaromVisibWave heightAir tempDewpointWater temp
2015-Jul-30 19:23N 57°58' E 010°41'8 8.2
2015-Jul-30 18:22N 58°05' E 010°35'6 7.2
2015-Jul-30 17:33N 58°11' E 010°31'7 7.4
2015-Jul-30 16:33N 58°18' E 010°27'68 2.5
2015-Jul-29 13:32N 57°30' E 008°56'  
2015-Jul-24 07:33N 58°12' E 006°20'3 0.1
2015-Jul-23 02:27N 58°14' E 006°24'6 7.0
2015-Jul-23 01:34N 58°16' E 006°13'7 6.6
2015-Jul-23 00:32N 58°19' E 006°02'6 6.1
2015-Jul-22 23:33N 58°23' E 005°53'37 6.2
2015-Jul-22 17:31N 58°56' E 005°18'7 7.4
2015-Jul-22 16:33N 59°02' E 005°11'7 7.3
2015-Jul-22 15:33N 59°09' E 005°08'7 6.4
2015-Jul-22 14:25N 59°16' E 005°07'6 6.3
2015-Jul-22 13:31N 59°22' E 005°07'15 7.5
2015-Jul-22 11:32N 59°36' E 005°17'6 6.3
2015-Jul-22 10:32N 59°41' E 005°24'6 5.6
2015-Jul-22 09:32N 59°46' E 005°31'1 1.2
2015-Jul-22 08:32N 59°47' E 005°30'0 0.0
2015-Jul-22 07:25N 59°47' E 005°30'0 0.0
2015-Jul-22 06:29N 59°47' E 005°30'0 0.0
2015-Jul-22 05:21N 59°47' E 005°30'0 0.0
2015-Jul-22 04:27N 59°47' E 005°30'0 0.0
2015-Jul-22 03:22N 59°47' E 005°30'0 0.0
2015-Jul-22 02:16N 59°47' E 005°30'0 0.0
2015-Jul-22 00:27N 59°47' E 005°30'0 0.0
2015-Jul-21 23:31N 59°47' E 005°30'0 0.0
2015-Jul-21 22:03N 59°47' E 005°30'0 0.0
2015-Jul-21 21:30N 59°47' E 005°30'0 0.0
2015-Jul-21 20:28N 59°47' E 005°30'0 0.0
2015-Jul-21 19:33N 59°47' E 005°30'1 0.8
2015-Jul-21 18:33N 59°47' E 005°32'5 5.4
2015-Jul-21 17:33N 59°52' E 005°33'  
Track history (hours):
 
Tides and Currents Weather Stations Pressure Air Temp Water Temp Dewpoint Dewpoint Depression Visibility Wind Speed Wind Dir Waves Ship Positions

Ocean Spirit of Moray (United Kingdom)

Ship's website: http://www.gordonstoun.org.uk/

Last reported at 2015-Jul-30 19:23 UTC. Time now 2015-Jul-31 05:03 UTC.
Position N 57°58' E 010°41'.

Length 24 m; draft 3 m.

Type: Sailing vessel. MMSI: 232007590.

Date/timePositionNaut miles runAvg speedWind from/ knotsBaromVisibWave heightAir tempDewpointWater temp
2015-Jul-30 19:23N 57°58' E 010°41'8 8.2
2015-Jul-30 18:22N 58°05' E 010°35'6 7.2
2015-Jul-30 17:33N 58°11' E 010°31'7 7.4
2015-Jul-30 16:33N 58°18' E 010°27'68 2.5
2015-Jul-29 13:32N 57°30' E 008°56'  
2015-Jul-24 07:33N 58°12' E 006°20'3 0.1
2015-Jul-23 02:27N 58°14' E 006°24'6 7.0
2015-Jul-23 01:34N 58°16' E 006°13'7 6.6
2015-Jul-23 00:32N 58°19' E 006°02'6 6.1
2015-Jul-22 23:33N 58°23' E 005°53'37 6.2
2015-Jul-22 17:31N 58°56' E 005°18'7 7.4
2015-Jul-22 16:33N 59°02' E 005°11'7 7.3
2015-Jul-22 15:33N 59°09' E 005°08'7 6.4
2015-Jul-22 14:25N 59°16' E 005°07'6 6.3
2015-Jul-22 13:31N 59°22' E 005°07'15 7.5
2015-Jul-22 11:32N 59°36' E 005°17'6 6.3
2015-Jul-22 10:32N 59°41' E 005°24'6 5.6
2015-Jul-22 09:32N 59°46' E 005°31'1 1.2
2015-Jul-22 08:32N 59°47' E 005°30'0 0.0
2015-Jul-22 07:25N 59°47' E 005°30'0 0.0
2015-Jul-22 06:29N 59°47' E 005°30'0 0.0
2015-Jul-22 05:21N 59°47' E 005°30'0 0.0
2015-Jul-22 04:27N 59°47' E 005°30'0 0.0
2015-Jul-22 03:22N 59°47' E 005°30'0 0.0
2015-Jul-22 02:16N 59°47' E 005°30'0 0.0
2015-Jul-22 00:27N 59°47' E 005°30'0 0.0
2015-Jul-21 23:31N 59°47' E 005°30'0 0.0
2015-Jul-21 22:03N 59°47' E 005°30'0 0.0
2015-Jul-21 21:30N 59°47' E 005°30'0 0.0
2015-Jul-21 20:28N 59°47' E 005°30'0 0.0
2015-Jul-21 19:33N 59°47' E 005°30'1 0.8
2015-Jul-21 18:33N 59°47' E 005°32'5 5.4
2015-Jul-21 17:33N 59°52' E 005°33'  

Dump ship's entire track history